sensor_id;sensor_type;location;lat;lon;timestamp;pressure;altitude;pressure_sealevel;temperature;humidity
11053;BME280;55230;42.602;23.470;2022-09-24T00:02:24;93602.16;;;3.97;99.10
11053;BME280;55230;42.602;23.470;2022-09-24T00:04:51;93820.69;;;5.35;100.00
11053;BME280;55230;42.602;23.470;2022-09-24T00:07:17;93834.25;;;5.48;100.00
11053;BME280;55230;42.602;23.470;2022-09-24T00:09:46;93768.97;;;4.96;100.00
11053;BME280;55230;42.602;23.470;2022-09-24T00:12:13;93831.31;;;5.39;100.00
11053;BME280;55230;42.602;23.470;2022-09-24T00:14:40;93834.06;;;5.35;100.00
11053;BME280;55230;42.602;23.470;2022-09-24T00:17:07;93840.28;;;5.29;100.00
11053;BME280;55230;42.602;23.470;2022-09-24T00:19:33;93841.50;;;5.24;100.00
11053;BME280;55230;42.602;23.470;2022-09-24T00:22:00;93833.88;;;5.23;100.00
11053;BME280;55230;42.602;23.470;2022-09-24T00:24:27;93860.66;;;5.19;100.00
11053;BME280;55230;42.602;23.470;2022-09-24T00:27:12;93717.75;;;4.21;100.00
11053;BME280;55230;42.602;23.470;2022-09-24T00:29:39;93836.69;;;5.12;100.00
11053;BME280;55230;42.602;23.470;2022-09-24T00:32:06;93780.47;;;4.62;100.00
11053;BME280;55230;42.602;23.470;2022-09-24T00:34:34;93668.63;;;3.85;100.00
11053;BME280;55230;42.602;23.470;2022-09-24T00:37:01;93490.34;;;2.59;100.00
11053;BME280;55230;42.602;23.470;2022-09-24T00:39:28;93825.03;;;4.99;100.00
11053;BME280;55230;42.602;23.470;2022-09-24T00:41:54;93829.69;;;4.95;100.00
11053;BME280;55230;42.602;23.470;2022-09-24T00:44:52;93828.16;;;4.94;100.00
11053;BME280;55230;42.602;23.470;2022-09-24T00:47:29;93828.97;;;4.91;100.00
11053;BME280;55230;42.602;23.470;2022-09-24T00:50:11;93425.47;;;2.09;100.00
11053;BME280;55230;42.602;23.470;2022-09-24T00:52:42;93829.88;;;4.81;100.00
11053;BME280;55230;42.602;23.470;2022-09-24T00:55:11;93831.47;;;4.75;100.00
11053;BME280;55230;42.602;23.470;2022-09-24T00:57:39;93824.97;;;4.76;100.00
11053;BME280;55230;42.602;23.470;2022-09-24T01:00:11;93827.66;;;4.76;100.00
11053;BME280;55230;42.602;23.470;2022-09-24T01:02:40;93824.63;;;4.74;100.00
11053;BME280;55230;42.602;23.470;2022-09-24T01:05:08;93824.63;;;4.74;100.00
11053;BME280;55230;42.602;23.470;2022-09-24T01:07:35;93816.19;;;4.76;100.00
11053;BME280;55230;42.602;23.470;2022-09-24T01:10:02;93822.38;;;4.69;100.00
11053;BME280;55230;42.602;23.470;2022-09-24T01:12:35;93820.94;;;4.61;100.00
11053;BME280;55230;42.602;23.470;2022-09-24T01:15:14;93697.69;;;3.76;100.00
11053;BME280;55230;42.602;23.470;2022-09-24T01:17:46;93627.47;;;3.18;100.00
11053;BME280;55230;42.602;23.470;2022-09-24T01:20:52;93805.84;;;4.47;100.00
11053;BME280;55230;42.602;23.470;2022-09-24T01:26:31;93813.28;;;4.33;100.00
11053;BME280;55230;42.602;23.470;2022-09-24T01:31:50;93806.72;;;4.41;100.00
11053;BME280;55230;42.602;23.470;2022-09-24T01:34:23;93804.75;;;4.45;100.00
11053;BME280;55230;42.602;23.470;2022-09-24T01:36:52;93810.53;;;4.40;100.00
11053;BME280;55230;42.602;23.470;2022-09-24T01:39:20;93808.22;;;4.42;100.00
11053;BME280;55230;42.602;23.470;2022-09-24T01:41:48;93696.47;;;3.46;100.00
11053;BME280;55230;42.602;23.470;2022-09-24T01:44:15;93711.97;;;3.59;100.00
11053;BME280;55230;42.602;23.470;2022-09-24T01:46:43;93539.22;;;2.38;100.00
11053;BME280;55230;42.602;23.470;2022-09-24T01:49:11;93822.81;;;4.34;100.00
11053;BME280;55230;42.602;23.470;2022-09-24T01:51:41;93802.09;;;4.11;100.00
11053;BME280;55230;42.602;23.470;2022-09-24T01:54:15;93816.41;;;4.28;100.00
11053;BME280;55230;42.602;23.470;2022-09-24T01:56:46;93814.06;;;4.30;100.00
11053;BME280;55230;42.602;23.470;2022-09-24T01:59:21;93760.78;;;3.89;100.00
11053;BME280;55230;42.602;23.470;2022-09-24T02:01:52;93690.84;;;3.37;100.00
11053;BME280;55230;42.602;23.470;2022-09-24T02:04:25;93814.59;;;4.18;100.00
11053;BME280;55230;42.602;23.470;2022-09-24T02:06:55;93822.25;;;4.16;100.00
11053;BME280;55230;42.602;23.470;2022-09-24T02:09:34;93696.91;;;3.41;100.00
11053;BME280;55230;42.602;23.470;2022-09-24T02:12:04;93545.44;;;2.21;100.00
11053;BME280;55230;42.602;23.470;2022-09-24T02:14:36;93718.66;;;3.36;100.00
11053;BME280;55230;42.602;23.470;2022-09-24T02:17:06;93826.88;;;4.12;100.00
11053;BME280;55230;42.602;23.470;2022-09-24T02:19:35;93712.22;;;3.34;100.00
11053;BME280;55230;42.602;23.470;2022-09-24T02:22:04;93779.69;;;3.65;100.00
11053;BME280;55230;42.602;23.470;2022-09-24T02:24:36;93844.31;;;4.20;100.00
11053;BME280;55230;42.602;23.470;2022-09-24T02:27:06;93841.00;;;4.09;100.00
11053;BME280;55230;42.602;23.470;2022-09-24T02:29:33;93928.75;;;4.00;100.00
11053;BME280;55230;42.602;23.470;2022-09-24T02:32:01;93855.13;;;4.06;100.00
11053;BME280;55230;42.602;23.470;2022-09-24T02:34:36;93833.47;;;4.00;100.00
11053;BME280;55230;42.602;23.470;2022-09-24T02:37:05;93847.97;;;3.96;100.00
11053;BME280;55230;42.602;23.470;2022-09-24T02:39:32;93596.75;;;2.22;100.00
11053;BME280;55230;42.602;23.470;2022-09-24T02:42:01;93857.16;;;3.95;100.00
11053;BME280;55230;42.602;23.470;2022-09-24T02:44:29;93857.69;;;3.76;100.00
11053;BME280;55230;42.602;23.470;2022-09-24T02:46:56;93850.75;;;3.85;100.00
11053;BME280;55230;42.602;23.470;2022-09-24T02:49:23;93776.31;;;3.16;100.00
11053;BME280;55230;42.602;23.470;2022-09-24T02:51:51;93858.41;;;3.80;100.00
11053;BME280;55230;42.602;23.470;2022-09-24T02:54:18;93828.13;;;3.60;100.00
11053;BME280;55230;42.602;23.470;2022-09-24T02:56:46;93863.81;;;3.76;100.00
11053;BME280;55230;42.602;23.470;2022-09-24T02:59:13;93862.28;;;3.75;100.00
11053;BME280;55230;42.602;23.470;2022-09-24T03:01:39;93864.28;;;3.64;100.00
11053;BME280;55230;42.602;23.470;2022-09-24T03:04:06;93863.81;;;3.76;100.00
11053;BME280;55230;42.602;23.470;2022-09-24T03:06:33;93862.28;;;3.72;100.00
11053;BME280;55230;42.602;23.470;2022-09-24T03:09:02;93863.09;;;3.69;100.00
11053;BME280;55230;42.602;23.470;2022-09-24T03:11:29;93726.75;;;2.78;100.00
11053;BME280;55230;42.602;23.470;2022-09-24T03:13:57;93864.59;;;3.70;100.00
11053;BME280;55230;42.602;23.470;2022-09-24T03:16:24;93799.44;;;3.26;100.00
11053;BME280;55230;42.602;23.470;2022-09-24T03:18:52;93863.09;;;3.69;100.00
11053;BME280;55230;42.602;23.470;2022-09-24T03:21:20;93858.16;;;3.67;100.00
11053;BME280;55230;42.602;23.470;2022-09-24T03:23:47;93863.88;;;3.66;100.00
11053;BME280;55230;42.602;23.470;2022-09-24T03:26:16;93619.28;;;2.07;100.00
11053;BME280;55230;42.602;23.470;2022-09-24T03:28:43;93889.03;;;3.61;100.00
11053;BME280;55230;42.602;23.470;2022-09-24T03:31:10;93739.28;;;2.81;100.00
11053;BME280;55230;42.602;23.470;2022-09-24T03:33:38;93840.56;;;3.29;100.00
11053;BME280;55230;42.602;23.470;2022-09-24T03:36:08;93867.72;;;3.61;100.00
11053;BME280;55230;42.602;23.470;2022-09-24T03:38:36;93876.47;;;3.62;100.00
11053;BME280;55230;42.602;23.470;2022-09-24T03:41:04;93826.38;;;2.84;100.00
11053;BME280;55230;42.602;23.470;2022-09-24T03:43:32;93882.19;;;3.60;100.00
11053;BME280;55230;42.602;23.470;2022-09-24T03:46:00;93846.53;;;3.40;100.00
11053;BME280;55230;42.602;23.470;2022-09-24T03:48:27;93805.00;;;2.95;100.00
11053;BME280;55230;42.602;23.470;2022-09-24T03:50:54;93881.41;;;3.63;100.00
11053;BME280;55230;42.602;23.470;2022-09-24T03:53:21;93786.50;;;2.70;100.00
11053;BME280;55230;42.602;23.470;2022-09-24T03:55:54;93712.59;;;2.33;100.00
11053;BME280;55230;42.602;23.470;2022-09-24T03:58:21;93884.91;;;3.53;100.00
11053;BME280;55230;42.602;23.470;2022-09-24T04:00:51;93742.97;;;2.40;100.00
11053;BME280;55230;42.602;23.470;2022-09-24T04:03:18;93890.66;;;3.51;100.00
11053;BME280;55230;42.602;23.470;2022-09-24T04:05:46;93886.50;;;3.43;100.00
11053;BME280;55230;42.602;23.470;2022-09-24T04:08:15;93886.88;;;3.45;100.00
11053;BME280;55230;42.602;23.470;2022-09-24T04:10:43;93886.09;;;3.48;100.00
11053;BME280;55230;42.602;23.470;2022-09-24T04:13:10;93738.09;;;2.27;100.00
11053;BME280;55230;42.602;23.470;2022-09-24T04:15:37;93913.53;;;3.45;100.00
11053;BME280;55230;42.602;23.470;2022-09-24T04:18:05;93882.69;;;3.44;100.00
11053;BME280;55230;42.602;23.470;2022-09-24T04:20:33;93864.19;;;3.20;100.00
11053;BME280;55230;42.602;23.470;2022-09-24T04:23:00;93892.22;;;3.42;100.00
11053;BME280;55230;42.602;23.470;2022-09-24T04:25:29;93895.28;;;3.40;100.00
11053;BME280;55230;42.602;23.470;2022-09-24T04:27:57;93769.44;;;2.61;100.00
11053;BME280;55230;42.602;23.470;2022-09-24T04:30:26;93763.84;;;2.48;100.00
11053;BME280;55230;42.602;23.470;2022-09-24T04:32:53;93904.31;;;3.57;100.00
11053;BME280;55230;42.602;23.470;2022-09-24T04:35:22;93911.13;;;3.62;100.00
11053;BME280;55230;42.602;23.470;2022-09-24T04:37:49;93906.56;;;3.62;100.00
11053;BME280;55230;42.602;23.470;2022-09-24T04:40:16;93913.34;;;3.74;100.00
11053;BME280;55230;42.602;23.470;2022-09-24T04:42:43;93915.91;;;3.88;100.00
11053;BME280;55230;42.602;23.470;2022-09-24T04:45:11;93916.16;;;4.04;100.00
11053;BME280;55230;42.602;23.470;2022-09-24T04:47:38;93921.06;;;4.09;100.00
11053;BME280;55230;42.602;23.470;2022-09-24T04:50:07;93416.59;;;0.72;100.00
11053;BME280;55230;42.602;23.470;2022-09-24T04:52:37;93764.66;;;3.00;100.00
11053;BME280;55230;42.602;23.470;2022-09-24T04:55:05;93849.22;;;3.88;100.00
11053;BME280;55230;42.602;23.470;2022-09-24T04:57:32;93910.78;;;4.44;100.00
11053;BME280;55230;42.602;23.470;2022-09-24T05:00:00;93918.63;;;4.62;100.00
11053;BME280;55230;42.602;23.470;2022-09-24T05:02:28;93391.25;;;0.57;100.00
11053;BME280;55230;42.602;23.470;2022-09-24T05:04:54;93883.97;;;4.18;100.00
11053;BME280;55230;42.602;23.470;2022-09-24T05:07:21;93864.31;;;4.38;100.00
11053;BME280;55230;42.602;23.470;2022-09-24T05:09:49;93912.53;;;4.95;100.00
11053;BME280;55230;42.602;23.470;2022-09-24T05:12:16;93695.09;;;3.31;100.00
11053;BME280;55230;42.602;23.470;2022-09-24T05:14:43;93848.34;;;4.68;100.00
11053;BME280;55230;42.602;23.470;2022-09-24T05:17:10;93828.34;;;4.80;100.00
11053;BME280;55230;42.602;23.470;2022-09-24T05:19:36;93924.69;;;5.56;100.00
11053;BME280;55230;42.602;23.470;2022-09-24T05:22:03;93811.25;;;5.01;100.00
11053;BME280;55230;42.602;23.470;2022-09-24T05:24:30;93874.34;;;5.21;100.00
11053;BME280;55230;42.602;23.470;2022-09-24T05:26:58;93924.00;;;5.75;100.00
11053;BME280;55230;42.602;23.470;2022-09-24T05:29:36;93925.81;;;6.09;100.00
11053;BME280;55230;42.602;23.470;2022-09-24T05:32:04;93948.81;;;6.06;99.53
11053;BME280;55230;42.602;23.470;2022-09-24T05:34:32;93935.72;;;6.12;99.55
11053;BME280;55230;42.602;23.470;2022-09-24T05:36:59;93918.72;;;6.22;98.99
11053;BME280;55230;42.602;23.470;2022-09-24T05:39:26;93924.97;;;6.58;98.25
11053;BME280;55230;42.602;23.470;2022-09-24T05:41:53;93952.41;;;6.65;97.84
11053;BME280;55230;42.602;23.470;2022-09-24T05:44:21;93925.22;;;6.44;96.28
11053;BME280;55230;42.602;23.470;2022-09-24T05:46:48;93928.75;;;6.60;96.35
11053;BME280;55230;42.602;23.470;2022-09-24T05:49:14;93938.09;;;6.72;98.72
11053;BME280;55230;42.602;23.470;2022-09-24T05:51:42;93942.03;;;6.87;94.50
11053;BME280;55230;42.602;23.470;2022-09-24T05:54:09;93899.13;;;6.48;96.22
11053;BME280;55230;42.602;23.470;2022-09-24T05:56:37;93978.88;;;6.83;99.69
11053;BME280;55230;42.602;23.470;2022-09-24T05:59:04;93616.84;;;4.62;100.00
11053;BME280;55230;42.602;23.470;2022-09-24T06:01:32;93678.53;;;4.94;100.00
11053;BME280;55230;42.602;23.470;2022-09-24T06:03:59;93908.88;;;6.58;100.00
11053;BME280;55230;42.602;23.470;2022-09-24T06:06:27;93936.41;;;7.01;100.00
11053;BME280;55230;42.602;23.470;2022-09-24T06:08:54;93951.88;;;7.68;98.89
11053;BME280;55230;42.602;23.470;2022-09-24T06:11:21;93957.66;;;8.51;92.21
11053;BME280;55230;42.602;23.470;2022-09-24T06:13:48;93960.66;;;8.53;89.71
11053;BME280;55230;42.602;23.470;2022-09-24T06:16:15;93906.66;;;7.99;90.83
11053;BME280;55230;42.602;23.470;2022-09-24T06:18:43;93892.09;;;7.68;93.09
11053;BME280;55230;42.602;23.470;2022-09-24T06:21:12;93972.34;;;7.78;95.68
11053;BME280;55230;42.602;23.470;2022-09-24T06:23:39;93852.56;;;7.00;95.93
11053;BME280;55230;42.602;23.470;2022-09-24T06:26:09;93966.31;;;7.74;97.31
11053;BME280;55230;42.602;23.470;2022-09-24T06:28:37;93963.75;;;7.51;99.42
11053;BME280;55230;42.602;23.470;2022-09-24T06:31:04;93914.13;;;7.04;96.98
11053;BME280;55230;42.602;23.470;2022-09-24T06:33:31;93937.25;;;7.53;97.50
11053;BME280;55230;42.602;23.470;2022-09-24T06:36:00;93893.66;;;6.94;100.00
11053;BME280;55230;42.602;23.470;2022-09-24T06:38:28;93964.56;;;7.48;97.70
11053;BME280;55230;42.602;23.470;2022-09-24T06:40:58;93966.75;;;7.73;92.39
11053;BME280;55230;42.602;23.470;2022-09-24T06:43:25;93967.19;;;8.03;94.94
11053;BME280;55230;42.602;23.470;2022-09-24T06:45:53;93988.72;;;8.36;91.69
11053;BME280;55230;42.602;23.470;2022-09-24T06:48:21;93922.38;;;7.84;88.81
11053;BME280;55230;42.602;23.470;2022-09-24T06:50:48;93987.91;;;8.39;90.20
11053;BME280;55230;42.602;23.470;2022-09-24T06:53:17;93673.28;;;6.15;91.08
11053;BME280;55230;42.602;23.470;2022-09-24T06:55:44;93985.03;;;8.46;89.41
11053;BME280;55230;42.602;23.470;2022-09-24T06:58:13;93954.22;;;8.95;86.61
11053;BME280;55230;42.602;23.470;2022-09-24T07:00:40;93942.13;;;9.15;82.84
11053;BME280;55230;42.602;23.470;2022-09-24T07:03:12;93992.28;;;9.22;82.49
11053;BME280;55230;42.602;23.470;2022-09-24T07:05:40;93982.88;;;8.85;84.55
11053;BME280;55230;42.602;23.470;2022-09-24T07:08:07;93986.06;;;9.66;82.79
11053;BME280;55230;42.602;23.470;2022-09-24T07:10:35;93993.94;;;9.03;80.84
11053;BME280;55230;42.602;23.470;2022-09-24T07:13:02;93999.09;;;8.82;82.30
11053;BME280;55230;42.602;23.470;2022-09-24T07:15:29;93989.63;;;8.77;83.71
11053;BME280;55230;42.602;23.470;2022-09-24T07:17:56;94011.13;;;9.22;81.83
11053;BME280;55230;42.602;23.470;2022-09-24T07:20:23;93841.78;;;8.33;79.95
11053;BME280;55230;42.602;23.470;2022-09-24T07:22:52;93955.22;;;9.42;80.88
11053;BME280;55230;42.602;23.470;2022-09-24T07:25:19;93926.75;;;9.16;81.03
11053;BME280;55230;42.602;23.470;2022-09-24T07:27:47;93569.28;;;7.10;78.96
11053;BME280;55230;42.602;23.470;2022-09-24T07:30:14;93989.88;;;10.44;77.66
11053;BME280;55230;42.602;23.470;2022-09-24T07:32:41;93987.09;;;10.10;77.56
11053;BME280;55230;42.602;23.470;2022-09-24T07:35:08;93984.78;;;9.83;78.68
11053;BME280;55230;42.602;23.470;2022-09-24T07:37:35;93982.09;;;9.83;80.55
11053;BME280;55230;42.602;23.470;2022-09-24T07:40:02;93988.78;;;10.04;77.58
11053;BME280;55230;42.602;23.470;2022-09-24T07:42:29;93871.88;;;9.26;79.02
11053;BME280;55230;42.602;23.470;2022-09-24T07:44:57;93848.31;;;9.68;77.31
11053;BME280;55230;42.602;23.470;2022-09-24T07:47:25;93886.22;;;10.11;76.17
11053;BME280;55230;42.602;23.470;2022-09-24T07:49:51;93980.28;;;10.30;75.55
11053;BME280;55230;42.602;23.470;2022-09-24T07:52:18;93980.28;;;10.30;75.60
11053;BME280;55230;42.602;23.470;2022-09-24T07:54:45;93972.97;;;10.18;74.56
11053;BME280;55230;42.602;23.470;2022-09-24T07:57:12;93975.56;;;10.34;75.24
11053;BME280;55230;42.602;23.470;2022-09-24T07:59:39;93824.94;;;9.27;73.33
11053;BME280;55230;42.602;23.470;2022-09-24T08:02:14;93997.28;;;10.78;73.52
11053;BME280;55230;42.602;23.470;2022-09-24T08:04:42;93986.16;;;10.76;73.24
11053;BME280;55230;42.602;23.470;2022-09-24T08:07:09;93988.84;;;11.44;71.38
11053;BME280;55230;42.602;23.470;2022-09-24T08:09:36;93980.41;;;11.85;70.15
11053;BME280;55230;42.602;23.470;2022-09-24T08:12:03;93981.22;;;11.30;69.30
11053;BME280;55230;42.602;23.470;2022-09-24T08:14:30;93970.75;;;11.32;68.96
11053;BME280;55230;42.602;23.470;2022-09-24T08:16:57;93978.03;;;11.87;67.96
11053;BME280;55230;42.602;23.470;2022-09-24T08:19:25;93974.28;;;12.24;67.47
11053;BME280;55230;42.602;23.470;2022-09-24T08:21:52;93981.84;;;12.38;64.28
11053;BME280;55230;42.602;23.470;2022-09-24T08:24:19;93976.50;;;11.86;66.36
11053;BME280;55230;42.602;23.470;2022-09-24T08:26:45;93979.63;;;12.15;66.07
11053;BME280;55230;42.602;23.470;2022-09-24T08:29:12;93974.22;;;12.55;62.80
11053;BME280;55230;42.602;23.470;2022-09-24T08:31:39;93973.63;;;12.60;62.57
11053;BME280;55230;42.602;23.470;2022-09-24T08:34:07;93397.41;;;8.98;62.34
11053;BME280;55230;42.602;23.470;2022-09-24T08:36:35;93445.16;;;9.59;59.65
11053;BME280;55230;42.602;23.470;2022-09-24T08:39:01;93867.34;;;12.41;58.98
11053;BME280;55230;42.602;23.470;2022-09-24T08:41:40;93852.56;;;11.97;61.29
11053;BME280;55230;42.602;23.470;2022-09-24T08:44:14;93928.06;;;12.49;60.81
11053;BME280;55230;42.602;23.470;2022-09-24T08:47:11;93923.25;;;12.35;60.39
11053;BME280;55230;42.602;23.470;2022-09-24T08:50:01;93972.47;;;12.88;59.34
11053;BME280;55230;42.602;23.470;2022-09-24T08:52:38;93881.50;;;12.54;58.65
11053;BME280;55230;42.602;23.470;2022-09-24T08:55:11;93975.53;;;13.17;56.74
11053;BME280;55230;42.602;23.470;2022-09-24T08:57:45;93782.38;;;11.76;60.19
11053;BME280;55230;42.602;23.470;2022-09-24T09:00:15;93759.47;;;11.49;58.32
11053;BME280;55230;42.602;23.470;2022-09-24T09:02:48;93968.19;;;13.27;56.80
11053;BME280;55230;42.602;23.470;2022-09-24T09:05:22;93965.75;;;13.56;58.10
11053;BME280;55230;42.602;23.470;2022-09-24T09:07:59;93838.22;;;13.09;53.27
11053;BME280;55230;42.602;23.470;2022-09-24T09:10:31;93909.94;;;13.40;52.71
11053;BME280;55230;42.602;23.470;2022-09-24T09:13:03;93946.31;;;14.08;52.96
11053;BME280;55230;42.602;23.470;2022-09-24T09:15:34;93947.34;;;13.78;52.35
11053;BME280;55230;42.602;23.470;2022-09-24T09:18:06;93777.50;;;12.55;54.33
11053;BME280;55230;42.602;23.470;2022-09-24T09:20:39;93720.44;;;12.35;50.69
11053;BME280;55230;42.602;23.470;2022-09-24T09:23:12;93953.50;;;14.29;50.19
11053;BME280;55230;42.602;23.470;2022-09-24T09:25:45;93954.59;;;14.55;50.35
11053;BME280;55230;42.602;23.470;2022-09-24T09:28:15;93804.38;;;12.86;49.78
11053;BME280;55230;42.602;23.470;2022-09-24T09:30:50;93956.34;;;13.84;51.08
11053;BME280;55230;42.602;23.470;2022-09-24T09:33:34;93896.63;;;13.60;50.09
11053;BME280;55230;42.602;23.470;2022-09-24T09:36:15;93895.84;;;13.69;49.07
11053;BME280;55230;42.602;23.470;2022-09-24T09:38:50;93957.50;;;14.43;50.56
11053;BME280;55230;42.602;23.470;2022-09-24T09:41:26;93821.94;;;14.01;47.71
11053;BME280;55230;42.602;23.470;2022-09-24T09:43:58;93934.75;;;14.49;47.32
11053;BME280;55230;42.602;23.470;2022-09-24T09:46:30;93914.47;;;14.59;47.68
11053;BME280;55230;42.602;23.470;2022-09-24T09:49:03;93872.91;;;14.21;50.83
11053;BME280;55230;42.602;23.470;2022-09-24T09:51:35;93930.22;;;14.46;49.52
11053;BME280;55230;42.602;23.470;2022-09-24T09:54:05;93889.84;;;14.39;47.26
11053;BME280;55230;42.602;23.470;2022-09-24T09:56:33;93922.78;;;14.79;47.09
11053;BME280;55230;42.602;23.470;2022-09-24T09:59:03;93909.78;;;14.83;47.02
11053;BME280;55230;42.602;23.470;2022-09-24T10:01:33;93921.09;;;15.44;47.08
11053;BME280;55230;42.602;23.470;2022-09-24T10:04:01;93913.91;;;15.70;47.06
11053;BME280;55230;42.602;23.470;2022-09-24T10:06:31;93817.78;;;15.58;44.54
11053;BME280;55230;42.602;23.470;2022-09-24T10:09:12;93844.41;;;15.83;43.59
11053;BME280;55230;42.602;23.470;2022-09-24T10:11:40;93919.19;;;16.23;43.48
11053;BME280;55230;42.602;23.470;2022-09-24T10:14:09;93896.50;;;16.11;44.91
11053;BME280;55230;42.602;23.470;2022-09-24T10:16:37;93895.03;;;16.10;44.07
11053;BME280;55230;42.602;23.470;2022-09-24T10:19:13;93872.31;;;15.98;44.26
11053;BME280;55230;42.602;23.470;2022-09-24T10:21:41;93886.97;;;15.86;44.02
11053;BME280;55230;42.602;23.470;2022-09-24T10:24:14;93766.94;;;15.00;43.81
11053;BME280;55230;42.602;23.470;2022-09-24T10:26:43;93885.38;;;15.80;43.27
11053;BME280;55230;42.602;23.470;2022-09-24T10:29:12;93732.94;;;14.90;43.21
11053;BME280;55230;42.602;23.470;2022-09-24T10:31:59;93877.75;;;16.13;42.17
11053;BME280;55230;42.602;23.470;2022-09-24T10:34:27;93860.53;;;15.72;42.07
11053;BME280;55230;42.602;23.470;2022-09-24T10:36:58;93871.47;;;16.07;41.76
11053;BME280;55230;42.602;23.470;2022-09-24T10:39:27;93841.78;;;15.74;41.31
11053;BME280;55230;42.602;23.470;2022-09-24T10:41:55;93877.84;;;16.04;41.42
11053;BME280;55230;42.602;23.470;2022-09-24T10:44:23;93762.91;;;15.40;40.64
11053;BME280;55230;42.602;23.470;2022-09-24T10:47:06;93794.16;;;15.79;40.48
11053;BME280;55230;42.602;23.470;2022-09-24T10:49:47;93872.59;;;16.50;41.66
11053;BME280;55230;42.602;23.470;2022-09-24T10:52:30;93875.78;;;16.48;39.14
11053;BME280;55230;42.602;23.470;2022-09-24T10:55:10;93843.66;;;16.52;37.37
11053;BME280;55230;42.602;23.470;2022-09-24T10:57:47;93864.06;;;17.02;36.82
11053;BME280;55230;42.602;23.470;2022-09-24T11:00:18;93858.91;;;16.84;36.80
11053;BME280;55230;42.602;23.470;2022-09-24T11:06:10;93866.38;;;17.09;37.31
11053;BME280;55230;42.602;23.470;2022-09-24T11:08:56;93806.44;;;16.84;35.59
11053;BME280;55230;42.602;23.470;2022-09-24T11:11:38;93760.50;;;16.51;36.81
11053;BME280;55230;42.602;23.470;2022-09-24T11:14:18;93877.50;;;17.52;35.72
11053;BME280;55230;42.602;23.470;2022-09-24T11:17:09;93879.00;;;17.53;35.72
11053;BME280;55230;42.602;23.470;2022-09-24T11:19:53;93878.13;;;17.41;35.05
11053;BME280;55230;42.602;23.470;2022-09-24T11:22:34;93870.34;;;17.54;35.84
11053;BME280;55230;42.602;23.470;2022-09-24T11:25:20;93845.75;;;17.80;34.92
11053;BME280;55230;42.602;23.470;2022-09-24T11:28:02;93769.06;;;17.67;36.66
11053;BME280;55230;42.602;23.470;2022-09-24T11:30:40;93779.94;;;17.36;35.69
11053;BME280;55230;42.602;23.470;2022-09-24T11:33:25;93823.22;;;17.54;36.26
11053;BME280;55230;42.602;23.470;2022-09-24T11:36:09;93852.47;;;17.79;35.34
11053;BME280;55230;42.602;23.470;2022-09-24T11:38:53;93811.94;;;17.41;35.25
11053;BME280;55230;42.602;23.470;2022-09-24T11:41:34;93848.56;;;17.60;34.26
11053;BME280;55230;42.602;23.470;2022-09-24T11:44:22;93860.22;;;17.86;34.85
11053;BME280;55230;42.602;23.470;2022-09-24T11:47:01;93317.31;;;14.74;34.40
11053;BME280;55230;42.602;23.470;2022-09-24T11:49:52;93846.97;;;18.47;33.71
11053;BME280;55230;42.602;23.470;2022-09-24T11:52:30;93882.41;;;18.78;33.62
11053;BME280;55230;42.602;23.470;2022-09-24T11:55:03;93677.88;;;17.42;33.68
11053;BME280;55230;42.602;23.470;2022-09-24T11:57:40;93783.38;;;17.36;34.55
11053;BME280;55230;42.602;23.470;2022-09-24T12:00:14;93831.78;;;17.98;33.51
11053;BME280;55230;42.602;23.470;2022-09-24T12:02:46;93830.91;;;17.86;33.18
11053;BME280;55230;42.602;23.470;2022-09-24T12:05:19;93785.47;;;17.72;34.17
11053;BME280;55230;42.602;23.470;2022-09-24T12:07:51;93827.75;;;18.30;33.42
11053;BME280;55230;42.602;23.470;2022-09-24T12:10:32;93822.69;;;18.54;32.26
11053;BME280;55230;42.602;23.470;2022-09-24T12:13:10;93819.66;;;18.41;31.60
11053;BME280;55230;42.602;23.470;2022-09-24T12:15:51;93821.53;;;18.24;32.45
11053;BME280;55230;42.602;23.470;2022-09-24T12:18:24;93828.47;;;18.73;33.23
11053;BME280;55230;42.602;23.470;2022-09-24T12:20:56;93819.72;;;19.22;34.39
11053;BME280;55230;42.602;23.470;2022-09-24T12:23:28;93816.56;;;19.57;31.51
11053;BME280;55230;42.602;23.470;2022-09-24T12:25:57;93821.53;;;19.64;31.00
11053;BME280;55230;42.602;23.470;2022-09-24T12:28:28;93818.78;;;19.64;31.85
11053;BME280;55230;42.602;23.470;2022-09-24T12:31:23;93636.91;;;18.37;31.96
11053;BME280;55230;42.602;23.470;2022-09-24T12:34:14;93754.59;;;19.20;31.59
11053;BME280;55230;42.602;23.470;2022-09-24T12:36:52;93812.06;;;19.98;30.38
11053;BME280;55230;42.602;23.470;2022-09-24T12:39:25;93734.97;;;19.49;30.22
11053;BME280;55230;42.602;23.470;2022-09-24T12:41:58;93826.50;;;19.82;30.02
11053;BME280;55230;42.602;23.470;2022-09-24T12:44:31;93815.78;;;19.73;30.90
11053;BME280;55230;42.602;23.470;2022-09-24T12:47:03;93815.31;;;19.96;30.60
11053;BME280;55230;42.602;23.470;2022-09-24T12:49:33;93746.16;;;19.74;30.22
11053;BME280;55230;42.602;23.470;2022-09-24T12:52:03;93774.75;;;19.45;30.14
11053;BME280;55230;42.602;23.470;2022-09-24T12:54:42;93812.03;;;19.37;30.10
11053;BME280;55230;42.602;23.470;2022-09-24T12:57:14;93806.78;;;19.28;29.85
11053;BME280;55230;42.602;23.470;2022-09-24T12:59:46;93807.31;;;19.48;30.95
11053;BME280;55230;42.602;23.470;2022-09-24T13:02:18;93722.03;;;19.33;30.81
11053;BME280;55230;42.602;23.470;2022-09-24T13:05:01;93747.41;;;19.50;30.95
11053;BME280;55230;42.602;23.470;2022-09-24T13:07:31;93776.50;;;19.70;29.77
11053;BME280;55230;42.602;23.470;2022-09-24T13:10:16;93792.19;;;19.81;30.19
11053;BME280;55230;42.602;23.470;2022-09-24T13:12:47;93638.91;;;18.37;30.14
11053;BME280;55230;42.602;23.470;2022-09-24T13:15:22;93791.41;;;19.36;29.77
11053;BME280;55230;42.602;23.470;2022-09-24T13:18:00;93596.09;;;17.95;30.20
11053;BME280;55230;42.602;23.470;2022-09-24T13:20:30;93682.84;;;18.39;29.01
11053;BME280;55230;42.602;23.470;2022-09-24T13:22:59;93734.88;;;18.72;29.30